sensor_id;sensor_type;location;lat;lon;timestamp;P1;durP1;ratioP1;P2;durP2;ratioP2
43793;SDS011;29414;44.798;20.366;2023-08-06T00:02:57;12.15;;;11.07;;
43793;SDS011;29414;44.798;20.366;2023-08-06T00:06:58;12.73;;;11.63;;
43793;SDS011;29414;44.798;20.366;2023-08-06T00:10:58;13.98;;;12.48;;
43793;SDS011;29414;44.798;20.366;2023-08-06T00:14:58;6.02;;;5.10;;
43793;SDS011;29414;44.798;20.366;2023-08-06T00:18:58;6.47;;;5.88;;
43793;SDS011;29414;44.798;20.366;2023-08-06T00:22:59;5.25;;;4.80;;
43793;SDS011;29414;44.798;20.366;2023-08-06T00:26:59;4.93;;;4.63;;
43793;SDS011;29414;44.798;20.366;2023-08-06T00:30:59;5.30;;;4.90;;
43793;SDS011;29414;44.798;20.366;2023-08-06T00:35:00;4.72;;;4.40;;
43793;SDS011;29414;44.798;20.366;2023-08-06T00:39:00;4.90;;;4.60;;
43793;SDS011;29414;44.798;20.366;2023-08-06T00:43:00;4.70;;;4.28;;
43793;SDS011;29414;44.798;20.366;2023-08-06T00:47:01;4.32;;;4.00;;
43793;SDS011;29414;44.798;20.366;2023-08-06T00:51:01;5.15;;;4.75;;
43793;SDS011;29414;44.798;20.366;2023-08-06T00:55:01;4.05;;;3.75;;
43793;SDS011;29414;44.798;20.366;2023-08-06T00:59:03;4.35;;;3.95;;
43793;SDS011;29414;44.798;20.366;2023-08-06T01:03:03;5.00;;;4.60;;
43793;SDS011;29414;44.798;20.366;2023-08-06T01:07:21;4.03;;;3.72;;
43793;SDS011;29414;44.798;20.366;2023-08-06T01:11:31;4.40;;;4.00;;
43793;SDS011;29414;44.798;20.366;2023-08-06T01:15:35;4.55;;;4.15;;
43793;SDS011;29414;44.798;20.366;2023-08-06T01:19:38;4.90;;;4.50;;
43793;SDS011;29414;44.798;20.366;2023-08-06T01:23:38;4.97;;;4.68;;
43793;SDS011;29414;44.798;20.366;2023-08-06T01:27:41;7.25;;;4.97;;
43793;SDS011;29414;44.798;20.366;2023-08-06T01:31:44;5.43;;;4.95;;
43793;SDS011;29414;44.798;20.366;2023-08-06T01:35:48;5.63;;;5.20;;
43793;SDS011;29414;44.798;20.366;2023-08-06T01:39:49;5.13;;;4.82;;
43793;SDS011;29414;44.798;20.366;2023-08-06T01:43:50;5.22;;;4.82;;
43793;SDS011;29414;44.798;20.366;2023-08-06T01:47:50;4.88;;;4.55;;
43793;SDS011;29414;44.798;20.366;2023-08-06T01:51:50;5.97;;;5.45;;
43793;SDS011;29414;44.798;20.366;2023-08-06T01:55:50;5.65;;;5.22;;
43793;SDS011;29414;44.798;20.366;2023-08-06T01:59:51;6.05;;;5.55;;
43793;SDS011;29414;44.798;20.366;2023-08-06T02:03:51;5.85;;;5.30;;
43793;SDS011;29414;44.798;20.366;2023-08-06T02:07:51;7.07;;;6.47;;
43793;SDS011;29414;44.798;20.366;2023-08-06T02:11:52;6.80;;;6.00;;
43793;SDS011;29414;44.798;20.366;2023-08-06T02:15:52;6.82;;;6.28;;
43793;SDS011;29414;44.798;20.366;2023-08-06T02:19:52;6.70;;;6.20;;
43793;SDS011;29414;44.798;20.366;2023-08-06T02:23:52;6.82;;;6.25;;
43793;SDS011;29414;44.798;20.366;2023-08-06T02:27:53;7.32;;;6.72;;
43793;SDS011;29414;44.798;20.366;2023-08-06T02:31:53;6.88;;;6.24;;
43793;SDS011;29414;44.798;20.366;2023-08-06T02:36:02;7.64;;;7.00;;
43793;SDS011;29414;44.798;20.366;2023-08-06T02:40:06;7.65;;;7.05;;
43793;SDS011;29414;44.798;20.366;2023-08-06T02:44:06;6.95;;;6.25;;
43793;SDS011;29414;44.798;20.366;2023-08-06T02:48:07;7.28;;;6.78;;
43793;SDS011;29414;44.798;20.366;2023-08-06T02:52:07;7.18;;;6.45;;
43793;SDS011;29414;44.798;20.366;2023-08-06T02:56:07;7.82;;;6.50;;
43793;SDS011;29414;44.798;20.366;2023-08-06T03:00:08;7.25;;;6.75;;
43793;SDS011;29414;44.798;20.366;2023-08-06T03:04:08;7.68;;;6.95;;
43793;SDS011;29414;44.798;20.366;2023-08-06T03:08:08;7.88;;;7.07;;
43793;SDS011;29414;44.798;20.366;2023-08-06T03:12:08;6.22;;;5.82;;
43793;SDS011;29414;44.798;20.366;2023-08-06T03:16:09;7.75;;;6.22;;
43793;SDS011;29414;44.798;20.366;2023-08-06T03:20:09;8.38;;;6.08;;
43793;SDS011;29414;44.798;20.366;2023-08-06T03:24:09;6.78;;;6.18;;
43793;SDS011;29414;44.798;20.366;2023-08-06T03:28:10;6.60;;;6.07;;
43793;SDS011;29414;44.798;20.366;2023-08-06T03:32:10;5.05;;;4.65;;
43793;SDS011;29414;44.798;20.366;2023-08-06T03:36:10;4.15;;;3.85;;
43793;SDS011;29414;44.798;20.366;2023-08-06T03:40:11;5.72;;;5.18;;
43793;SDS011;29414;44.798;20.366;2023-08-06T03:44:11;6.40;;;6.00;;
43793;SDS011;29414;44.798;20.366;2023-08-06T03:48:11;9.05;;;7.28;;
43793;SDS011;29414;44.798;20.366;2023-08-06T03:52:11;7.40;;;6.80;;
43793;SDS011;29414;44.798;20.366;2023-08-06T03:56:12;8.85;;;8.18;;
43793;SDS011;29414;44.798;20.366;2023-08-06T04:00:12;7.55;;;6.85;;
43793;SDS011;29414;44.798;20.366;2023-08-06T04:04:12;7.68;;;6.97;;
43793;SDS011;29414;44.798;20.366;2023-08-06T04:08:13;7.85;;;7.20;;
43793;SDS011;29414;44.798;20.366;2023-08-06T04:12:13;8.10;;;7.40;;
43793;SDS011;29414;44.798;20.366;2023-08-06T04:16:13;8.57;;;7.78;;
43793;SDS011;29414;44.798;20.366;2023-08-06T04:20:14;8.80;;;8.07;;
43793;SDS011;29414;44.798;20.366;2023-08-06T04:24:15;8.65;;;7.90;;
43793;SDS011;29414;44.798;20.366;2023-08-06T04:28:15;11.00;;;7.18;;
43793;SDS011;29414;44.798;20.366;2023-08-06T04:32:15;8.25;;;7.65;;
43793;SDS011;29414;44.798;20.366;2023-08-06T04:36:15;11.05;;;6.93;;
43793;SDS011;29414;44.798;20.366;2023-08-06T04:40:16;7.53;;;6.85;;
43793;SDS011;29414;44.798;20.366;2023-08-06T04:44:16;11.75;;;7.43;;
43793;SDS011;29414;44.798;20.366;2023-08-06T04:48:17;8.32;;;7.63;;
43793;SDS011;29414;44.798;20.366;2023-08-06T04:52:17;7.78;;;7.18;;
43793;SDS011;29414;44.798;20.366;2023-08-06T04:56:17;7.42;;;6.04;;
43793;SDS011;29414;44.798;20.366;2023-08-06T05:00:18;5.95;;;5.55;;
43793;SDS011;29414;44.798;20.366;2023-08-06T05:04:18;6.93;;;6.22;;
43793;SDS011;29414;44.798;20.366;2023-08-06T05:08:18;6.15;;;5.68;;
43793;SDS011;29414;44.798;20.366;2023-08-06T05:12:19;7.03;;;4.90;;
43793;SDS011;29414;44.798;20.366;2023-08-06T05:16:19;5.65;;;4.95;;
43793;SDS011;29414;44.798;20.366;2023-08-06T05:20:20;4.80;;;4.30;;
43793;SDS011;29414;44.798;20.366;2023-08-06T05:24:20;5.20;;;4.80;;
43793;SDS011;29414;44.798;20.366;2023-08-06T05:28:20;6.63;;;5.35;;
43793;SDS011;29414;44.798;20.366;2023-08-06T05:32:21;7.78;;;7.18;;
43793;SDS011;29414;44.798;20.366;2023-08-06T05:36:21;9.93;;;9.05;;
43793;SDS011;29414;44.798;20.366;2023-08-06T05:40:21;11.02;;;10.05;;
43793;SDS011;29414;44.798;20.366;2023-08-06T05:44:22;10.93;;;10.02;;
43793;SDS011;29414;44.798;20.366;2023-08-06T05:48:23;12.02;;;10.82;;
43793;SDS011;29414;44.798;20.366;2023-08-06T05:52:24;13.02;;;11.93;;
43793;SDS011;29414;44.798;20.366;2023-08-06T05:56:25;14.10;;;12.90;;
43793;SDS011;29414;44.798;20.366;2023-08-06T06:00:28;15.52;;;14.02;;
43793;SDS011;29414;44.798;20.366;2023-08-06T06:04:31;13.10;;;12.00;;
43793;SDS011;29414;44.798;20.366;2023-08-06T06:08:31;14.13;;;12.93;;
43793;SDS011;29414;44.798;20.366;2023-08-06T06:12:32;14.73;;;13.43;;
43793;SDS011;29414;44.798;20.366;2023-08-06T06:16:32;16.35;;;13.93;;
43793;SDS011;29414;44.798;20.366;2023-08-06T06:20:32;14.55;;;13.35;;
43793;SDS011;29414;44.798;20.366;2023-08-06T06:24:33;14.48;;;13.10;;
43793;SDS011;29414;44.798;20.366;2023-08-06T06:28:33;13.75;;;12.48;;
43793;SDS011;29414;44.798;20.366;2023-08-06T06:32:34;12.98;;;12.04;;
43793;SDS011;29414;44.798;20.366;2023-08-06T06:36:36;12.07;;;11.27;;
43793;SDS011;29414;44.798;20.366;2023-08-06T06:40:36;12.30;;;11.25;;
43793;SDS011;29414;44.798;20.366;2023-08-06T06:44:37;11.32;;;10.52;;
43793;SDS011;29414;44.798;20.366;2023-08-06T06:48:37;12.75;;;11.70;;
43793;SDS011;29414;44.798;20.366;2023-08-06T06:52:38;11.75;;;10.85;;
43793;SDS011;29414;44.798;20.366;2023-08-06T06:56:38;11.95;;;10.95;;
43793;SDS011;29414;44.798;20.366;2023-08-06T07:00:38;11.38;;;10.55;;
43793;SDS011;29414;44.798;20.366;2023-08-06T07:04:39;11.10;;;10.13;;
43793;SDS011;29414;44.798;20.366;2023-08-06T07:08:39;10.45;;;9.75;;
43793;SDS011;29414;44.798;20.366;2023-08-06T07:12:40;11.30;;;10.50;;
43793;SDS011;29414;44.798;20.366;2023-08-06T07:16:40;11.32;;;10.23;;
43793;SDS011;29414;44.798;20.366;2023-08-06T07:20:40;9.07;;;8.35;;
43793;SDS011;29414;44.798;20.366;2023-08-06T07:24:40;8.23;;;7.50;;
43793;SDS011;29414;44.798;20.366;2023-08-06T07:28:41;7.70;;;7.18;;
43793;SDS011;29414;44.798;20.366;2023-08-06T07:32:41;7.03;;;6.38;;
43793;SDS011;29414;44.798;20.366;2023-08-06T07:36:43;7.00;;;6.40;;
43793;SDS011;29414;44.798;20.366;2023-08-06T07:40:44;5.05;;;4.63;;
43793;SDS011;29414;44.798;20.366;2023-08-06T07:44:44;5.85;;;5.35;;
43793;SDS011;29414;44.798;20.366;2023-08-06T07:48:45;5.28;;;4.78;;
43793;SDS011;29414;44.798;20.366;2023-08-06T07:52:45;5.20;;;4.30;;
43793;SDS011;29414;44.798;20.366;2023-08-06T07:56:45;3.53;;;3.33;;
43793;SDS011;29414;44.798;20.366;2023-08-06T08:00:46;2.00;;;1.63;;
43793;SDS011;29414;44.798;20.366;2023-08-06T08:04:46;1.85;;;1.23;;
43793;SDS011;29414;44.798;20.366;2023-08-06T08:08:50;1.63;;;1.13;;
43793;SDS011;29414;44.798;20.366;2023-08-06T08:12:50;1.17;;;0.80;;
43793;SDS011;29414;44.798;20.366;2023-08-06T08:16:50;1.35;;;1.00;;
43793;SDS011;29414;44.798;20.366;2023-08-06T08:20:51;2.22;;;1.75;;
43793;SDS011;29414;44.798;20.366;2023-08-06T08:24:51;3.40;;;1.27;;
43793;SDS011;29414;44.798;20.366;2023-08-06T08:28:51;1.85;;;0.75;;
43793;SDS011;29414;44.798;20.366;2023-08-06T08:32:52;1.63;;;0.73;;
43793;SDS011;29414;44.798;20.366;2023-08-06T08:36:52;1.48;;;1.38;;
43793;SDS011;29414;44.798;20.366;2023-08-06T08:40:53;2.67;;;0.90;;
43793;SDS011;29414;44.798;20.366;2023-08-06T08:44:54;2.58;;;0.80;;
43793;SDS011;29414;44.798;20.366;2023-08-06T08:48:55;2.00;;;0.93;;
43793;SDS011;29414;44.798;20.366;2023-08-06T08:52:57;0.70;;;0.70;;
43793;SDS011;29414;44.798;20.366;2023-08-06T08:56:57;1.75;;;0.70;;
43793;SDS011;29414;44.798;20.366;2023-08-06T09:00:57;0.75;;;0.40;;
43793;SDS011;29414;44.798;20.366;2023-08-06T09:04:58;1.10;;;0.50;;
43793;SDS011;29414;44.798;20.366;2023-08-06T09:09:06;2.95;;;0.57;;
43793;SDS011;29414;44.798;20.366;2023-08-06T09:13:08;0.85;;;0.63;;
43793;SDS011;29414;44.798;20.366;2023-08-06T09:17:09;1.40;;;0.70;;
43793;SDS011;29414;44.798;20.366;2023-08-06T09:21:14;1.90;;;0.55;;
43793;SDS011;29414;44.798;20.366;2023-08-06T09:25:20;0.68;;;0.47;;
43793;SDS011;29414;44.798;20.366;2023-08-06T09:29:21;0.93;;;0.93;;
43793;SDS011;29414;44.798;20.366;2023-08-06T09:33:22;1.27;;;0.60;;
43793;SDS011;29414;44.798;20.366;2023-08-06T09:37:22;0.88;;;0.55;;
43793;SDS011;29414;44.798;20.366;2023-08-06T09:41:26;2.45;;;1.05;;
43793;SDS011;29414;44.798;20.366;2023-08-06T09:45:31;1.42;;;0.47;;
43793;SDS011;29414;44.798;20.366;2023-08-06T09:53:32;0.40;;;0.30;;
43793;SDS011;29414;44.798;20.366;2023-08-06T09:57:34;1.40;;;0.20;;
43793;SDS011;29414;44.798;20.366;2023-08-06T10:01:35;1.23;;;0.20;;
43793;SDS011;29414;44.798;20.366;2023-08-06T10:05:36;1.08;;;0.45;;
43793;SDS011;29414;44.798;20.366;2023-08-06T10:09:36;0.70;;;0.60;;
43793;SDS011;29414;44.798;20.366;2023-08-06T10:13:37;0.35;;;0.30;;
43793;SDS011;29414;44.798;20.366;2023-08-06T10:17:37;0.60;;;0.20;;
43793;SDS011;29414;44.798;20.366;2023-08-06T10:21:38;1.05;;;0.30;;
43793;SDS011;29414;44.798;20.366;2023-08-06T10:25:42;1.95;;;0.60;;
43793;SDS011;29414;44.798;20.366;2023-08-06T10:29:43;0.73;;;0.30;;
43793;SDS011;29414;44.798;20.366;2023-08-06T10:33:44;0.68;;;0.47;;
43793;SDS011;29414;44.798;20.366;2023-08-06T10:37:44;0.82;;;0.30;;
43793;SDS011;29414;44.798;20.366;2023-08-06T10:41:45;1.63;;;0.47;;
43793;SDS011;29414;44.798;20.366;2023-08-06T10:45:49;4.85;;;0.40;;
43793;SDS011;29414;44.798;20.366;2023-08-06T10:49:50;0.40;;;0.22;;
43793;SDS011;29414;44.798;20.366;2023-08-06T10:53:50;2.92;;;0.30;;
43793;SDS011;29414;44.798;20.366;2023-08-06T10:57:51;2.38;;;0.52;;
43793;SDS011;29414;44.798;20.366;2023-08-06T11:01:54;2.22;;;0.32;;
43793;SDS011;29414;44.798;20.366;2023-08-06T11:05:54;2.13;;;0.50;;
43793;SDS011;29414;44.798;20.366;2023-08-06T11:10:00;0.43;;;0.32;;
43793;SDS011;29414;44.798;20.366;2023-08-06T11:14:01;2.65;;;0.30;;
43793;SDS011;29414;44.798;20.366;2023-08-06T11:18:04;1.75;;;0.40;;
43793;SDS011;29414;44.798;20.366;2023-08-06T11:22:04;0.38;;;0.38;;
43793;SDS011;29414;44.798;20.366;2023-08-06T11:26:06;1.20;;;0.40;;
43793;SDS011;29414;44.798;20.366;2023-08-06T11:30:07;0.82;;;0.30;;
43793;SDS011;29414;44.798;20.366;2023-08-06T11:34:07;1.60;;;0.32;;
43793;SDS011;29414;44.798;20.366;2023-08-06T11:38:08;3.17;;;0.13;;
43793;SDS011;29414;44.798;20.366;2023-08-06T11:42:09;0.55;;;0.25;;
43793;SDS011;29414;44.798;20.366;2023-08-06T11:46:11;0.50;;;0.20;;
43793;SDS011;29414;44.798;20.366;2023-08-06T11:50:21;0.20;;;0.15;;
43793;SDS011;29414;44.798;20.366;2023-08-06T11:54:31;0.60;;;0.17;;
43793;SDS011;29414;44.798;20.366;2023-08-06T12:03:11;0.90;;;0.40;;
43793;SDS011;29414;44.798;20.366;2023-08-06T12:07:11;0.52;;;0.20;;
43793;SDS011;29414;44.798;20.366;2023-08-06T12:11:12;0.80;;;0.20;;
43793;SDS011;29414;44.798;20.366;2023-08-06T12:15:18;0.30;;;0.20;;
43793;SDS011;29414;44.798;20.366;2023-08-06T12:19:19;0.45;;;0.20;;
43793;SDS011;29414;44.798;20.366;2023-08-06T12:23:19;1.02;;;0.20;;
43793;SDS011;29414;44.798;20.366;2023-08-06T12:27:19;0.20;;;0.20;;
43793;SDS011;29414;44.798;20.366;2023-08-06T12:31:20;0.22;;;0.20;;
43793;SDS011;29414;44.798;20.366;2023-08-06T12:35:20;1.40;;;0.17;;
43793;SDS011;29414;44.798;20.366;2023-08-06T12:39:20;0.10;;;0.10;;
43793;SDS011;29414;44.798;20.366;2023-08-06T12:43:21;1.00;;;0.15;;
43793;SDS011;29414;44.798;20.366;2023-08-06T12:47:21;0.80;;;0.10;;
43793;SDS011;29414;44.798;20.366;2023-08-06T12:51:21;0.30;;;0.22;;
43793;SDS011;29414;44.798;20.366;2023-08-06T12:55:21;0.10;;;0.10;;
43793;SDS011;29414;44.798;20.366;2023-08-06T12:59:22;1.55;;;0.10;;
43793;SDS011;29414;44.798;20.366;2023-08-06T13:03:22;0.47;;;0.10;;
43793;SDS011;29414;44.798;20.366;2023-08-06T13:07:22;0.22;;;0.10;;
43793;SDS011;29414;44.798;20.366;2023-08-06T13:11:23;0.68;;;0.40;;
43793;SDS011;29414;44.798;20.366;2023-08-06T13:15:23;1.35;;;0.22;;
43793;SDS011;29414;44.798;20.366;2023-08-06T13:19:23;3.03;;;0.10;;
43793;SDS011;29414;44.798;20.366;2023-08-06T13:23:23;0.50;;;0.10;;
43793;SDS011;29414;44.798;20.366;2023-08-06T13:27:24;0.77;;;0.20;;
43793;SDS011;29414;44.798;20.366;2023-08-06T13:31:24;1.08;;;0.20;;
43793;SDS011;29414;44.798;20.366;2023-08-06T13:35:25;1.50;;;1.40;;
43793;SDS011;29414;44.798;20.366;2023-08-06T13:39:26;2.05;;;1.20;;
43793;SDS011;29414;44.798;20.366;2023-08-06T13:43:26;1.20;;;1.10;;
43793;SDS011;29414;44.798;20.366;2023-08-06T13:47:26;1.17;;;0.30;;
43793;SDS011;29414;44.798;20.366;2023-08-06T13:51:26;1.77;;;0.40;;
43793;SDS011;29414;44.798;20.366;2023-08-06T13:55:27;0.55;;;0.35;;
43793;SDS011;29414;44.798;20.366;2023-08-06T13:59:27;0.50;;;0.43;;
43793;SDS011;29414;44.798;20.366;2023-08-06T14:03:27;0.90;;;0.40;;
43793;SDS011;29414;44.798;20.366;2023-08-06T14:07:28;1.33;;;0.47;;
43793;SDS011;29414;44.798;20.366;2023-08-06T14:11:28;6.30;;;0.80;;
43793;SDS011;29414;44.798;20.366;2023-08-06T14:15:28;2.55;;;0.50;;
43793;SDS011;29414;44.798;20.366;2023-08-06T14:19:28;13.45;;;2.05;;
43793;SDS011;29414;44.798;20.366;2023-08-06T14:23:29;4.03;;;1.27;;
43793;SDS011;29414;44.798;20.366;2023-08-06T14:27:30;6.57;;;1.80;;
43793;SDS011;29414;44.798;20.366;2023-08-06T14:31:30;7.32;;;1.70;;
43793;SDS011;29414;44.798;20.366;2023-08-06T14:35:30;6.47;;;2.22;;
43793;SDS011;29414;44.798;20.366;2023-08-06T14:39:30;5.75;;;1.67;;
43793;SDS011;29414;44.798;20.366;2023-08-06T14:43:31;5.50;;;1.50;;
43793;SDS011;29414;44.798;20.366;2023-08-06T14:47:31;4.55;;;1.67;;
43793;SDS011;29414;44.798;20.366;2023-08-06T14:51:31;5.28;;;1.92;;
43793;SDS011;29414;44.798;20.366;2023-08-06T14:55:32;5.53;;;2.22;;
43793;SDS011;29414;44.798;20.366;2023-08-06T14:59:32;4.75;;;2.55;;
43793;SDS011;29414;44.798;20.366;2023-08-06T15:03:33;2.45;;;1.67;;
43793;SDS011;29414;44.798;20.366;2023-08-06T15:07:33;1.92;;;1.80;;
43793;SDS011;29414;44.798;20.366;2023-08-06T15:11:35;5.45;;;1.90;;
43793;SDS011;29414;44.798;20.366;2023-08-06T15:15:35;2.20;;;2.00;;
43793;SDS011;29414;44.798;20.366;2023-08-06T15:19:36;2.72;;;1.95;;
43793;SDS011;29414;44.798;20.366;2023-08-06T15:23:36;3.42;;;2.10;;
43793;SDS011;29414;44.798;20.366;2023-08-06T15:27:36;2.58;;;1.90;;
43793;SDS011;29414;44.798;20.366;2023-08-06T15:31:37;2.33;;;1.77;;
43793;SDS011;29414;44.798;20.366;2023-08-06T15:35:38;2.65;;;2.40;;
43793;SDS011;29414;44.798;20.366;2023-08-06T15:39:38;5.97;;;2.45;;
43793;SDS011;29414;44.798;20.366;2023-08-06T15:43:38;3.38;;;2.33;;
43793;SDS011;29414;44.798;20.366;2023-08-06T15:47:39;4.22;;;2.60;;
43793;SDS011;29414;44.798;20.366;2023-08-06T15:51:40;4.40;;;2.83;;
43793;SDS011;29414;44.798;20.366;2023-08-06T15:55:41;3.13;;;2.50;;
43793;SDS011;29414;44.798;20.366;2023-08-06T15:59:41;2.95;;;2.38;;
43793;SDS011;29414;44.798;20.366;2023-08-06T16:03:42;4.38;;;1.95;;
43793;SDS011;29414;44.798;20.366;2023-08-06T16:07:43;6.25;;;2.50;;
43793;SDS011;29414;44.798;20.366;2023-08-06T16:11:44;3.22;;;2.10;;
43793;SDS011;29414;44.798;20.366;2023-08-06T16:15:44;3.10;;;0.88;;
43793;SDS011;29414;44.798;20.366;2023-08-06T16:19:44;3.33;;;1.83;;
43793;SDS011;29414;44.798;20.366;2023-08-06T16:23:45;1.55;;;1.27;;
43793;SDS011;29414;44.798;20.366;2023-08-06T16:27:45;6.47;;;1.77;;
43793;SDS011;29414;44.798;20.366;2023-08-06T16:31:45;2.45;;;1.30;;
43793;SDS011;29414;44.798;20.366;2023-08-06T16:35:46;3.22;;;2.60;;
43793;SDS011;29414;44.798;20.366;2023-08-06T16:39:46;2.78;;;2.56;;
43793;SDS011;29414;44.798;20.366;2023-08-06T16:43:46;3.17;;;0.68;;
43793;SDS011;29414;44.798;20.366;2023-08-06T16:47:47;1.13;;;0.40;;
43793;SDS011;29414;44.798;20.366;2023-08-06T16:51:49;0.82;;;0.20;;
43793;SDS011;29414;44.798;20.366;2023-08-06T16:55:49;1.90;;;0.45;;
43793;SDS011;29414;44.798;20.366;2023-08-06T16:59:50;1.60;;;1.13;;
43793;SDS011;29414;44.798;20.366;2023-08-06T17:03:50;0.80;;;0.77;;
43793;SDS011;29414;44.798;20.366;2023-08-06T17:07:53;1.40;;;1.00;;
43793;SDS011;29414;44.798;20.366;2023-08-06T17:11:53;0.80;;;0.40;;
43793;SDS011;29414;44.798;20.366;2023-08-06T17:15:53;0.30;;;0.20;;
43793;SDS011;29414;44.798;20.366;2023-08-06T17:19:54;0.50;;;0.20;;
43793;SDS011;29414;44.798;20.366;2023-08-06T17:23:54;1.27;;;0.80;;
43793;SDS011;29414;44.798;20.366;2023-08-06T17:27:54;1.77;;;0.60;;
43793;SDS011;29414;44.798;20.366;2023-08-06T17:31:54;1.17;;;0.50;;
43793;SDS011;29414;44.798;20.366;2023-08-06T17:36:01;2.30;;;1.00;;
43793;SDS011;29414;44.798;20.366;2023-08-06T17:40:11;2.22;;;0.63;;
43793;SDS011;29414;44.798;20.366;2023-08-06T17:44:11;3.08;;;0.60;;
43793;SDS011;29414;44.798;20.366;2023-08-06T17:48:12;0.40;;;0.40;;
43793;SDS011;29414;44.798;20.366;2023-08-06T17:52:15;0.45;;;0.45;;
43793;SDS011;29414;44.798;20.366;2023-08-06T17:56:15;1.95;;;0.82;;
43793;SDS011;29414;44.798;20.366;2023-08-06T18:00:16;0.50;;;0.40;;
43793;SDS011;29414;44.798;20.366;2023-08-06T18:04:16;1.02;;;0.30;;
43793;SDS011;29414;44.798;20.366;2023-08-06T18:08:16;1.83;;;1.48;;
43793;SDS011;29414;44.798;20.366;2023-08-06T18:12:16;1.15;;;0.60;;
43793;SDS011;29414;44.798;20.366;2023-08-06T18:16:18;2.60;;;0.80;;
43793;SDS011;29414;44.798;20.366;2023-08-06T18:20:18;1.00;;;0.73;;
43793;SDS011;29414;44.798;20.366;2023-08-06T18:24:18;1.08;;;0.60;;
43793;SDS011;29414;44.798;20.366;2023-08-06T18:28:19;0.80;;;0.80;;
43793;SDS011;29414;44.798;20.366;2023-08-06T18:32:19;2.53;;;0.60;;
43793;SDS011;29414;44.798;20.366;2023-08-06T18:36:20;1.27;;;0.85;;
43793;SDS011;29414;44.798;20.366;2023-08-06T18:40:20;1.25;;;0.20;;
43793;SDS011;29414;44.798;20.366;2023-08-06T18:44:20;0.63;;;0.22;;
43793;SDS011;29414;44.798;20.366;2023-08-06T18:48:21;1.40;;;0.20;;
43793;SDS011;29414;44.798;20.366;2023-08-06T18:52:21;0.40;;;0.15;;
43793;SDS011;29414;44.798;20.366;2023-08-06T18:56:21;0.55;;;0.20;;
43793;SDS011;29414;44.798;20.366;2023-08-06T19:00:22;2.67;;;0.50;;
43793;SDS011;29414;44.798;20.366;2023-08-06T19:04:22;0.20;;;0.15;;
43793;SDS011;29414;44.798;20.366;2023-08-06T19:08:24;0.30;;;0.10;;
43793;SDS011;29414;44.798;20.366;2023-08-06T19:12:26;1.17;;;0.30;;
43793;SDS011;29414;44.798;20.366;2023-08-06T19:16:27;1.63;;;0.20;;
43793;SDS011;29414;44.798;20.366;2023-08-06T19:20:27;0.40;;;0.20;;
43793;SDS011;29414;44.798;20.366;2023-08-06T19:24:27;0.22;;;0.20;;
43793;SDS011;29414;44.798;20.366;2023-08-06T19:28:28;2.05;;;0.30;;
43793;SDS011;29414;44.798;20.366;2023-08-06T19:32:28;1.10;;;0.45;;
43793;SDS011;29414;44.798;20.366;2023-08-06T19:36:29;0.57;;;0.10;;
43793;SDS011;29414;44.798;20.366;2023-08-06T19:40:29;3.00;;;0.68;;
43793;SDS011;29414;44.798;20.366;2023-08-06T19:44:29;0.28;;;0.13;;
43793;SDS011;29414;44.798;20.366;2023-08-06T19:48:30;0.43;;;0.20;;
43793;SDS011;29414;44.798;20.366;2023-08-06T19:52:32;1.92;;;0.20;;
43793;SDS011;29414;44.798;20.366;2023-08-06T19:56:32;3.20;;;0.28;;
43793;SDS011;29414;44.798;20.366;2023-08-06T20:00:33;0.90;;;0.17;;
43793;SDS011;29414;44.798;20.366;2023-08-06T20:04:34;2.33;;;0.30;;
43793;SDS011;29414;44.798;20.366;2023-08-06T20:08:34;2.53;;;0.50;;
43793;SDS011;29414;44.798;20.366;2023-08-06T20:12:36;1.70;;;0.50;;
43793;SDS011;29414;44.798;20.366;2023-08-06T20:16:36;0.35;;;0.10;;
43793;SDS011;29414;44.798;20.366;2023-08-06T20:20:36;1.42;;;0.25;;
43793;SDS011;29414;44.798;20.366;2023-08-06T20:24:37;1.65;;;0.45;;
43793;SDS011;29414;44.798;20.366;2023-08-06T20:28:37;3.20;;;0.63;;
43793;SDS011;29414;44.798;20.366;2023-08-06T20:32:37;1.95;;;0.50;;
43793;SDS011;29414;44.798;20.366;2023-08-06T20:36:37;2.13;;;0.22;;
43793;SDS011;29414;44.798;20.366;2023-08-06T20:40:41;2.33;;;0.30;;
43793;SDS011;29414;44.798;20.366;2023-08-06T20:44:41;2.90;;;0.50;;
43793;SDS011;29414;44.798;20.366;2023-08-06T20:48:42;1.90;;;0.28;;
43793;SDS011;29414;44.798;20.366;2023-08-06T20:52:42;1.73;;;0.20;;
43793;SDS011;29414;44.798;20.366;2023-08-06T20:56:43;1.75;;;0.28;;
43793;SDS011;29414;44.798;20.366;2023-08-06T21:00:43;3.03;;;0.32;;
43793;SDS011;29414;44.798;20.366;2023-08-06T21:04:44;4.05;;;0.22;;
43793;SDS011;29414;44.798;20.366;2023-08-06T21:08:44;0.63;;;0.30;;
43793;SDS011;29414;44.798;20.366;2023-08-06T21:12:44;1.02;;;0.40;;
43793;SDS011;29414;44.798;20.366;2023-08-06T21:16:44;1.02;;;0.30;;
43793;SDS011;29414;44.798;20.366;2023-08-06T21:20:45;3.80;;;0.30;;
43793;SDS011;29414;44.798;20.366;2023-08-06T21:24:45;2.72;;;0.43;;
43793;SDS011;29414;44.798;20.366;2023-08-06T21:28:45;1.65;;;0.20;;
43793;SDS011;29414;44.798;20.366;2023-08-06T21:32:47;2.92;;;0.35;;
43793;SDS011;29414;44.798;20.366;2023-08-06T21:36:47;1.90;;;0.30;;
43793;SDS011;29414;44.798;20.366;2023-08-06T21:40:50;1.60;;;0.50;;
43793;SDS011;29414;44.798;20.366;2023-08-06T21:44:50;3.22;;;0.45;;
43793;SDS011;29414;44.798;20.366;2023-08-06T21:48:51;1.27;;;0.25;;
43793;SDS011;29414;44.798;20.366;2023-08-06T21:52:51;3.15;;;0.40;;
43793;SDS011;29414;44.798;20.366;2023-08-06T21:56:51;2.70;;;0.32;;
43793;SDS011;29414;44.798;20.366;2023-08-06T22:00:52;2.75;;;0.50;;
43793;SDS011;29414;44.798;20.366;2023-08-06T22:04:52;0.75;;;0.40;;
43793;SDS011;29414;44.798;20.366;2023-08-06T22:08:53;3.55;;;0.50;;
43793;SDS011;29414;44.798;20.366;2023-08-06T22:12:53;2.05;;;0.38;;
43793;SDS011;29414;44.798;20.366;2023-08-06T22:16:54;2.35;;;0.77;;
43793;SDS011;29414;44.798;20.366;2023-08-06T22:20:55;1.45;;;0.52;;
43793;SDS011;29414;44.798;20.366;2023-08-06T22:24:55;1.50;;;0.40;;
43793;SDS011;29414;44.798;20.366;2023-08-06T22:28:55;1.05;;;0.32;;
43793;SDS011;29414;44.798;20.366;2023-08-06T22:32:56;2.47;;;0.60;;
43793;SDS011;29414;44.798;20.366;2023-08-06T22:36:56;0.85;;;0.32;;
43793;SDS011;29414;44.798;20.366;2023-08-06T22:40:56;0.48;;;0.30;;
43793;SDS011;29414;44.798;20.366;2023-08-06T22:44:56;1.35;;;0.63;;
43793;SDS011;29414;44.798;20.366;2023-08-06T22:48:57;2.05;;;0.55;;
43793;SDS011;29414;44.798;20.366;2023-08-06T22:52:57;0.65;;;0.50;;
43793;SDS011;29414;44.798;20.366;2023-08-06T22:56:58;1.73;;;0.43;;
43793;SDS011;29414;44.798;20.366;2023-08-06T23:00:58;3.83;;;0.70;;
43793;SDS011;29414;44.798;20.366;2023-08-06T23:05:01;1.25;;;0.50;;
43793;SDS011;29414;44.798;20.366;2023-08-06T23:09:02;3.45;;;0.57;;
43793;SDS011;29414;44.798;20.366;2023-08-06T23:13:04;1.90;;;0.60;;
43793;SDS011;29414;44.798;20.366;2023-08-06T23:17:04;1.95;;;0.50;;
43793;SDS011;29414;44.798;20.366;2023-08-06T23:21:04;3.00;;;0.65;;
43793;SDS011;29414;44.798;20.366;2023-08-06T23:25:05;1.23;;;0.50;;
43793;SDS011;29414;44.798;20.366;2023-08-06T23:29:05;3.28;;;0.70;;
43793;SDS011;29414;44.798;20.366;2023-08-06T23:33:05;2.92;;;0.60;;
43793;SDS011;29414;44.798;20.366;2023-08-06T23:37:06;1.55;;;0.90;;
43793;SDS011;29414;44.798;20.366;2023-08-06T23:41:06;1.45;;;0.80;;
43793;SDS011;29414;44.798;20.366;2023-08-06T23:45:06;2.88;;;0.88;;
43793;SDS011;29414;44.798;20.366;2023-08-06T23:49:07;2.33;;;0.80;;
43793;SDS011;29414;44.798;20.366;2023-08-06T23:53:07;6.15;;;1.10;;
43793;SDS011;29414;44.798;20.366;2023-08-06T23:57:07;2.53;;;0.85;;
